< Typhoon 196809 1968 Season Typhoon 196811 >
Typhoon 196810 (TRIX)
General InformationTrack Information on Google Maps || Disaster Info.ResourceGoogle EarthGE AnimationAtom FeedGeoJSON
Detalied Best Track (Time Zone = UTC)
Year Month Day Hour Lat. Long. Pressure (hPa) Wind (kt) Class Image Chart
1968 8 22 00 20.0 138.3 1004 0 2 -- Chart
1968 8 22 06 21.9 136.8 1002 0 2 -- Chart
1968 8 22 12 22.4 135.9 1000 0 2 -- Chart
1968 8 22 18 23.0 135.0 1000 0 2 -- Chart
1968 8 23 00 23.3 134.3 998 0 2 -- Chart
1968 8 23 06 23.8 133.0 996 0 2 -- Chart
1968 8 23 12 24.2 131.8 992 0 2 -- Chart
1968 8 23 18 24.4 130.7 986 0 2 -- Chart
1968 8 24 00 24.5 129.7 986 0 9 -- Chart
1968 8 24 06 24.1 128.9 985 0 9 -- Chart
1968 8 24 12 23.5 128.3 985 0 9 -- Chart
1968 8 24 18 22.5 128.6 985 0 9 -- Chart
1968 8 25 00 22.8 130.0 985 0 9 -- Chart
1968 8 25 06 24.1 130.0 985 0 9 -- Chart
1968 8 25 12 24.5 129.5 990 0 9 -- Chart
1968 8 25 18 24.9 129.6 980 0 9 -- Chart
1968 8 26 00 25.3 129.3 980 0 9 -- Chart
1968 8 26 06 25.2 129.2 980 0 9 -- Chart
1968 8 26 12 25.0 129.3 985 0 9 -- Chart
1968 8 26 18 25.5 129.3 980 0 9 -- Chart
1968 8 27 00 26.3 129.3 980 0 9 -- Chart
1968 8 27 06 26.7 129.3 980 0 9 -- Chart
1968 8 27 12 27.1 129.5 980 0 9 -- Chart
1968 8 27 18 27.9 129.4 980 0 9 -- Chart
1968 8 28 00 28.5 129.2 985 0 9 -- Chart
1968 8 28 06 29.5 129.0 980 0 9 -- Chart
1968 8 28 12 30.6 129.5 982 0 9 -- Chart
1968 8 28 18 31.4 130.7 986 0 9 -- Chart
1968 8 29 00 33.6 132.2 988 0 9 -- Chart
1968 8 29 06 35.8 135.0 988 0 9 -- Chart
1968 8 29 12 37.4 139.4 990 0 6 -- Chart
1968 8 29 18 41.2 143.4 988 0 6 -- Chart
1968 8 30 00 44.9 147.0 984 0 6 -- Chart
1968 8 30 06 46.9 149.0 982 0 6 -- Chart
1968 8 30 12 48.4 151.0 984 0 6 -- Chart
1968 8 30 18 49.0 154.0 984 0 6 -- Chart
1968 8 31 00 49.4 158.5 990 0 6 -- Chart
1968 8 31 06 50.4 161.5 992 0 6 -- Chart
1968 8 31 12 51.0 164.0 994 0 6 -- Chart
1968 8 31 18 51.4 166.5 996 0 6 -- Chart
1968 9 1 00 51.0 169.0 1000 0 6 -- Chart
1968 9 1 06 49.7 171.7 1000 0 6 -- Chart
1968 9 1 12 48.6 173.7 1004 0 6 -- Chart
1968 9 1 18 47.6 175.6 1006 0 6 -- Chart
1968 9 2 00 46.0 178.0 1006 0 6 -- Chart
1968 9 2 06 44.0 180.5 1006 0 6 -- Chart
Japan Meteorological Agency Best Track Data | Correction Date : 1990-10-17
< Typhoon 196809 1968 Season Typhoon 196811 >

Help